Island Pilot — WDF6368 — position and weather

sailwx.info

Track history (hours):
 
Tides and Currents Weather Stations Pressure Air Temp Water Temp Dewpoint Dewpoint Depression Visibility Wind Speed Wind Dir Waves Ship Positions

Island Pilot

Owner: Island Pilot, Yonges Island, SC. More information available from US FCC via Universal Licensing System and Coast Guard Vessel Documentation Center.

Last reported at 2018-Feb-23 02:31 UTC. Time now 2018-Feb-24 08:10 UTC.
Position N 35°06' W 076°32'.

Length 20 m; draft 3 m.

Type: Towing. MMSI: 367473520.

Date/timePositionNaut miles runAvg speedWind from/ knotsBaromVisibWave heightAir tempDewpointWater temp
2018-Feb-23 02:31N 35°06' W 076°32'3 5.7
2018-Feb-23 01:57N 35°03' W 076°34'3 6.0
2018-Feb-23 01:27N 35°02' W 076°37'4 6.2
2018-Feb-23 00:53N 34°60' W 076°41'2 5.3
2018-Feb-23 00:30N 34°58' W 076°41'2 5.1
2018-Feb-23 00:01N 34°56' W 076°39'2 3.9
2018-Feb-22 23:26N 34°54' W 076°41'2 4.0
2018-Feb-22 23:00N 34°52' W 076°42'2 4.4
2018-Feb-22 22:30N 34°50' W 076°41'2 4.6
2018-Feb-22 22:00N 34°48' W 076°41'2 4.6
2018-Feb-22 21:30N 34°46' W 076°40'2 4.5
2018-Feb-22 21:00N 34°44' W 076°42'1 1.3
2018-Feb-22 20:31N 34°43' W 076°42'0 0.0
2018-Feb-22 20:00N 34°43' W 076°42'0 0.0
2018-Feb-22 19:31N 34°43' W 076°42'0 0.0
2018-Feb-22 19:00N 34°43' W 076°42'0 0.0
2018-Feb-22 18:30N 34°43' W 076°42'0 0.0
2018-Feb-22 18:00N 34°43' W 076°42'0 0.0
2018-Feb-22 17:30N 34°43' W 076°42'0 0.0
2018-Feb-22 17:01N 34°43' W 076°42'0 0.0
2018-Feb-22 16:31N 34°43' W 076°42'0 0.0
2018-Feb-22 16:01N 34°43' W 076°42'0 0.0
2018-Feb-22 15:30N 34°43' W 076°42'0 0.0
2018-Feb-22 15:01N 34°43' W 076°42'0 0.0
2018-Feb-22 14:30N 34°43' W 076°42'0 0.0
2018-Feb-22 14:00N 34°43' W 076°42'0 0.0
2018-Feb-22 13:30N 34°43' W 076°42'0 0.0
2018-Feb-22 13:00N 34°43' W 076°42'0 0.0
2018-Feb-22 12:31N 34°43' W 076°42'0 0.0
2018-Feb-22 12:01N 34°43' W 076°42'0 0.0
2018-Feb-22 11:30N 34°43' W 076°42'0 0.0
2018-Feb-22 11:01N 34°43' W 076°42'0 0.0
2018-Feb-22 10:31N 34°43' W 076°42'0 0.0
2018-Feb-22 10:00N 34°43' W 076°42'0 0.0
2018-Feb-22 09:30N 34°43' W 076°42'0 0.0
2018-Feb-22 09:01N 34°43' W 076°42'0 0.0
2018-Feb-22 08:31N 34°43' W 076°42'0 0.0
2018-Feb-22 08:01N 34°43' W 076°42'0 0.0
2018-Feb-22 07:31N 34°43' W 076°42'1 1.2
2018-Feb-22 07:00N 34°44' W 076°42'0 0.3
2018-Feb-22 06:31N 34°44' W 076°42'3 5.8
2018-Feb-22 06:00N 34°47' W 076°41'3 5.5
2018-Feb-22 05:30N 34°49' W 076°41'3 5.1
2018-Feb-22 05:01N 34°52' W 076°41'2 4.7
2018-Feb-22 04:30N 34°54' W 076°41'3 5.2
2018-Feb-22 04:00N 34°57' W 076°40'  
2018-Feb-18 01:17N 34°57' W 076°40'1 3.6
2018-Feb-18 01:00N 34°56' W 076°39'2 3.4
2018-Feb-18 00:29N 34°54' W 076°40'1 2.8
2018-Feb-18 00:00N 34°53' W 076°41'1 2.8
2018-Feb-17 23:30N 34°52' W 076°41'1 2.7
2018-Feb-17 23:01N 34°50' W 076°41'1 2.1
2018-Feb-17 22:30N 34°49' W 076°41'1 1.5
2018-Feb-17 22:01N 34°49' W 076°41'1 1.1
2018-Feb-17 21:30N 34°48' W 076°41'1 1.1
2018-Feb-17 21:01N 34°48' W 076°41'1 2.0
2018-Feb-17 20:30N 34°47' W 076°41'1 2.5
2018-Feb-17 20:01N 34°46' W 076°40'1 2.7
2018-Feb-17 19:30N 34°44' W 076°41'1 2.5
2018-Feb-17 19:00N 34°43' W 076°42'0 0.4
2018-Feb-17 18:30N 34°43' W 076°42'0 0.1
2018-Feb-17 18:01N 34°43' W 076°42'0 0.0
2018-Feb-17 17:30N 34°43' W 076°42'0 0.0
2018-Feb-17 17:00N 34°43' W 076°42'0 0.1
2018-Feb-17 16:30N 34°43' W 076°42'0 0.0
2018-Feb-17 16:00N 34°43' W 076°42'0 0.0
2018-Feb-17 15:31N 34°43' W 076°42'0 0.0
2018-Feb-17 15:01N 34°43' W 076°42'0 0.3
2018-Feb-17 14:31N 34°43' W 076°41'0 0.4
2018-Feb-17 14:00N 34°43' W 076°42'0 0.4
2018-Feb-17 13:31N 34°43' W 076°41'1 1.3
2018-Feb-17 13:01N 34°43' W 076°42'0 0.5
2018-Feb-17 12:31N 34°43' W 076°42'0 0.0
2018-Feb-17 12:00N 34°43' W 076°42'0 0.0
2018-Feb-17 11:31N 34°43' W 076°42'0 0.6
2018-Feb-17 11:00N 34°43' W 076°42'0 0.0
2018-Feb-17 10:30N 34°43' W 076°42'0 0.0
2018-Feb-17 10:00N 34°43' W 076°42'0 0.0
2018-Feb-17 09:30N 34°43' W 076°42'0 0.0
2018-Feb-17 09:00N 34°43' W 076°42'0 0.0
2018-Feb-17 08:30N 34°43' W 076°42'0 0.0
2018-Feb-17 08:00N 34°43' W 076°42'0 0.1
2018-Feb-17 07:29N 34°43' W 076°42'0 0.0
2018-Feb-17 07:00N 34°43' W 076°42'0 0.0
2018-Feb-17 06:31N 34°43' W 076°42'0 0.0
2018-Feb-17 06:00N 34°43' W 076°42'0 0.0
2018-Feb-17 05:30N 34°43' W 076°42'0 0.1
2018-Feb-17 05:00N 34°43' W 076°42'0 0.6
2018-Feb-17 04:31N 34°43' W 076°42'0 0.0
2018-Feb-17 04:01N 34°43' W 076°42'0 0.0
2018-Feb-17 03:30N 34°43' W 076°42'0 0.6
2018-Feb-17 03:01N 34°43' W 076°42'0 0.1
2018-Feb-17 02:31N 34°43' W 076°42'0 0.0
2018-Feb-17 02:01N 34°43' W 076°42'0 0.0
2018-Feb-17 01:30N 34°43' W 076°42'0 0.0
2018-Feb-17 01:00N 34°43' W 076°42'0 0.7
2018-Feb-17 00:30N 34°43' W 076°42'0 0.7
2018-Feb-17 00:01N 34°43' W 076°42'0 0.2
2018-Feb-16 23:31N 34°43' W 076°42'0 0.0
2018-Feb-16 22:59N 34°43' W 076°42'0 0.0
2018-Feb-16 22:30N 34°43' W 076°42'0 0.0
2018-Feb-16 22:00N 34°43' W 076°42'0 0.0
2018-Feb-16 21:30N 34°43' W 076°42'0 0.0
2018-Feb-16 21:01N 34°43' W 076°42'0 0.0
2018-Feb-16 20:31N 34°43' W 076°42'0 0.1
2018-Feb-16 20:01N 34°43' W 076°42'0 0.6
2018-Feb-16 19:31N 34°43' W 076°42'0 0.0
2018-Feb-16 19:00N 34°43' W 076°42'0 0.0
2018-Feb-16 18:31N 34°43' W 076°42'0 0.0
2018-Feb-16 18:00N 34°43' W 076°42'0 0.0
2018-Feb-16 17:30N 34°43' W 076°42'0 0.0
2018-Feb-16 17:01N 34°43' W 076°42'0 0.6
2018-Feb-16 16:30N 34°43' W 076°42'0 0.0
2018-Feb-16 16:00N 34°43' W 076°42'0 0.0
2018-Feb-16 15:31N 34°43' W 076°42'1 1.4
2018-Feb-16 15:01N 34°43' W 076°42'1 1.3
2018-Feb-16 14:30N 34°43' W 076°42'1 1.2
2018-Feb-16 14:01N 34°43' W 076°42'0 0.9
2018-Feb-16 13:31N 34°43' W 076°42'0 0.8
2018-Feb-16 13:00N 34°43' W 076°42'0 0.0
2018-Feb-16 12:30N 34°43' W 076°42'0 0.0
2018-Feb-16 12:01N 34°43' W 076°42'0 0.6
2018-Feb-16 11:31N 34°43' W 076°42'0 0.1
2018-Feb-16 11:00N 34°43' W 076°42'0 0.0
2018-Feb-16 10:31N 34°43' W 076°42'0 0.0
2018-Feb-16 10:00N 34°43' W 076°42'0 0.0
2018-Feb-16 09:30N 34°43' W 076°42'0 0.0
2018-Feb-16 09:00N 34°43' W 076°42'0 0.0
2018-Feb-16 08:31N 34°43' W 076°42'0 0.0
2018-Feb-16 08:00N 34°43' W 076°42'0 0.6
2018-Feb-16 07:30N 34°43' W 076°42'0 0.0
2018-Feb-16 07:00N 34°43' W 076°42'0 0.0
2018-Feb-16 06:30N 34°43' W 076°42'0 0.0
2018-Feb-16 06:00N 34°43' W 076°42'1 1.1
2018-Feb-16 05:31N 34°43' W 076°42'1 1.1
2018-Feb-16 05:00N 34°43' W 076°42'0 0.0
2018-Feb-16 04:31N 34°43' W 076°42'0 0.0
2018-Feb-16 04:00N 34°43' W 076°42'0 0.7
2018-Feb-16 03:30N 34°43' W 076°42'0 0.0
2018-Feb-16 03:00N 34°43' W 076°42'0 0.3
2018-Feb-16 02:31N 34°43' W 076°42'0 0.9
2018-Feb-16 02:01N 34°43' W 076°42'0 0.0
2018-Feb-16 01:30N 34°43' W 076°42'0 0.0
2018-Feb-16 01:00N 34°43' W 076°42'0 0.0
2018-Feb-16 00:31N 34°43' W 076°42'0 0.0
2018-Feb-16 00:00N 34°43' W 076°42'0 0.0
2018-Feb-15 23:31N 34°43' W 076°42'0 0.0
2018-Feb-15 23:01N 34°43' W 076°42'0 0.0
2018-Feb-15 22:30N 34°43' W 076°42'1 1.4
2018-Feb-15 22:01N 34°44' W 076°42'1 1.3
2018-Feb-15 21:30N 34°43' W 076°42'0 0.0
2018-Feb-15 21:01N 34°43' W 076°42'0 0.0
2018-Feb-15 20:31N 34°43' W 076°42'0 0.0
2018-Feb-15 20:00N 34°43' W 076°42'0 0.7
2018-Feb-15 19:30N 34°43' W 076°42'0 0.1
2018-Feb-15 19:01N 34°43' W 076°42'0 0.6
2018-Feb-15 18:30N 34°43' W 076°42'0 0.0
2018-Feb-15 18:01N 34°43' W 076°42'0 0.3
2018-Feb-15 17:30N 34°43' W 076°42'0 0.5
2018-Feb-15 17:01N 34°43' W 076°42'0 0.0
2018-Feb-15 16:31N 34°43' W 076°42'0 0.0
2018-Feb-15 16:01N 34°43' W 076°42'0 0.0
2018-Feb-15 15:31N 34°43' W 076°42'0 0.0
2018-Feb-15 15:01N 34°43' W 076°42'0 0.0
2018-Feb-15 14:30N 34°43' W 076°42'0 0.0
2018-Feb-15 14:00N 34°43' W 076°42'0 0.0
2018-Feb-15 13:31N 34°43' W 076°42'0 0.0
2018-Feb-15 13:00N 34°43' W 076°42'0 0.3
2018-Feb-15 12:30N 34°43' W 076°42'0 0.0
2018-Feb-15 12:01N 34°43' W 076°42'0 0.0
2018-Feb-15 11:30N 34°43' W 076°42'0 0.0
2018-Feb-15 11:01N 34°43' W 076°42'0 0.1
2018-Feb-15 10:30N 34°43' W 076°42'0 0.0
2018-Feb-15 10:00N 34°43' W 076°42'0 0.0
2018-Feb-15 09:30N 34°43' W 076°42'0 0.0
2018-Feb-15 09:00N 34°43' W 076°42'0 0.0
2018-Feb-15 08:30N 34°43' W 076°42'0 0.0
2018-Feb-15 08:00N 34°43' W 076°42'0 0.0
2018-Feb-15 07:30N 34°43' W 076°42'0 0.0
2018-Feb-15 07:01N 34°43' W 076°42'0 0.0
2018-Feb-15 06:31N 34°43' W 076°42'0 0.0
2018-Feb-15 06:00N 34°43' W 076°42'0 0.2
2018-Feb-15 05:30N 34°43' W 076°42'0 0.0
2018-Feb-15 05:00N 34°43' W 076°42'0 0.0
2018-Feb-15 04:29N 34°43' W 076°42'0 0.0
2018-Feb-15 03:59N 34°43' W 076°42'0 0.0
2018-Feb-15 03:31N 34°43' W 076°42'0 0.0
2018-Feb-15 03:00N 34°43' W 076°42'0 0.0
2018-Feb-15 02:30N 34°43' W 076°42'0 0.0
2018-Feb-15 01:59N 34°43' W 076°42'0 0.0
2018-Feb-15 01:31N 34°43' W 076°42'0 0.0
2018-Feb-15 01:01N 34°43' W 076°42'0 0.2
2018-Feb-15 00:31N 34°43' W 076°42'0 0.0
2018-Feb-15 00:00N 34°43' W 076°42'0 0.2
2018-Feb-14 23:31N 34°43' W 076°42'0 0.0
2018-Feb-14 23:00N 34°43' W 076°42'0 0.0
2018-Feb-14 22:31N 34°43' W 076°42'0 0.0
2018-Feb-14 22:01N 34°43' W 076°42'0 0.0
2018-Feb-14 21:30N 34°43' W 076°42'1 1.0
2018-Feb-14 21:00N 34°43' W 076°42'0 1.0
2018-Feb-14 20:31N 34°43' W 076°42'0 0.1
2018-Feb-14 20:00N 34°43' W 076°42'0 0.3
2018-Feb-14 19:30N 34°43' W 076°42'0 0.0
2018-Feb-14 19:01N 34°43' W 076°42'0 0.0
2018-Feb-14 18:30N 34°43' W 076°42'0 0.0
2018-Feb-14 18:01N 34°43' W 076°42'0 0.0
2018-Feb-14 17:31N 34°43' W 076°42'0 0.0
2018-Feb-14 17:01N 34°43' W 076°42'0 0.0
2018-Feb-14 16:30N 34°43' W 076°42'0 0.3
2018-Feb-14 16:00N 34°43' W 076°42'0 0.1
2018-Feb-14 15:31N 34°43' W 076°42'0 0.0
2018-Feb-14 15:00N 34°43' W 076°42'0 0.0
2018-Feb-14 14:30N 34°43' W 076°42'0 0.0
2018-Feb-14 14:01N 34°43' W 076°42'0 0.0
2018-Feb-14 13:31N 34°43' W 076°42'0 0.0
2018-Feb-14 13:00N 34°43' W 076°42'0 0.0
2018-Feb-14 12:30N 34°43' W 076°42'0 0.0
2018-Feb-14 12:00N 34°43' W 076°42'0 0.0
2018-Feb-14 11:31N 34°43' W 076°42'0 0.0
2018-Feb-14 11:00N 34°43' W 076°42'0 0.0
2018-Feb-14 10:30N 34°43' W 076°42'0 0.0
2018-Feb-14 10:00N 34°43' W 076°42'0 0.0
2018-Feb-14 09:31N 34°43' W 076°42'0 0.0
2018-Feb-14 09:01N 34°43' W 076°42'0 0.0
2018-Feb-14 08:30N 34°43' W 076°42'0 0.0
2018-Feb-14 08:01N 34°43' W 076°42'0 0.0
2018-Feb-14 07:30N 34°43' W 076°42'0 0.0
2018-Feb-14 07:00N 34°43' W 076°42'0 0.0
2018-Feb-14 06:30N 34°43' W 076°42'0 0.0
2018-Feb-14 06:01N 34°43' W 076°42'0 0.0
2018-Feb-14 05:30N 34°43' W 076°42'0 0.0
2018-Feb-14 05:00N 34°43' W 076°42'0 0.0
2018-Feb-14 04:29N 34°43' W 076°42'0 0.0
2018-Feb-14 04:00N 34°43' W 076°42'0 0.0
2018-Feb-14 03:31N 34°43' W 076°42'0 0.0
2018-Feb-14 03:00N 34°43' W 076°42'0 0.0
2018-Feb-14 02:30N 34°43' W 076°42'0 0.0
2018-Feb-14 02:00N 34°43' W 076°42'0 0.0
2018-Feb-14 01:31N 34°43' W 076°42'0 0.0
2018-Feb-14 01:01N 34°43' W 076°42'0 0.0
2018-Feb-14 00:30N 34°43' W 076°42'0 0.0
2018-Feb-14 00:00N 34°43' W 076°42'0 0.0
2018-Feb-13 23:29N 34°43' W 076°42'0 0.0
2018-Feb-13 23:00N 34°43' W 076°42'0 0.0
2018-Feb-13 22:30N 34°43' W 076°42'0 0.0
2018-Feb-13 22:00N 34°43' W 076°42'0 0.0
2018-Feb-13 21:29N 34°43' W 076°42'0 0.0
2018-Feb-13 21:00N 34°43' W 076°42'0 0.0
2018-Feb-13 20:30N 34°43' W 076°42'0 0.0
2018-Feb-13 20:00N 34°43' W 076°42'0 0.0
2018-Feb-13 19:30N 34°43' W 076°42'0 0.0
2018-Feb-13 19:00N 34°43' W 076°42'0 0.0
2018-Feb-13 18:29N 34°43' W 076°42'0 0.0
2018-Feb-13 18:01N 34°43' W 076°42'0 0.0
2018-Feb-13 17:31N 34°43' W 076°42'0 0.0
2018-Feb-13 17:00N 34°43' W 076°42'0 0.0
2018-Feb-13 16:31N 34°43' W 076°42'0 0.0
2018-Feb-13 16:00N 34°43' W 076°42'0 0.0
2018-Feb-13 15:30N 34°43' W 076°42'0 0.0
2018-Feb-13 15:00N 34°43' W 076°42'0 0.0
2018-Feb-13 14:30N 34°43' W 076°42'0 0.0
2018-Feb-13 14:01N 34°43' W 076°42'0 0.0
2018-Feb-13 13:30N 34°43' W 076°42'0 0.0
2018-Feb-13 13:00N 34°43' W 076°42'0 0.0
2018-Feb-13 12:31N 34°43' W 076°42'0 0.0
2018-Feb-13 12:00N 34°43' W 076°42'0 0.0
2018-Feb-13 11:30N 34°43' W 076°42'0 0.0
2018-Feb-13 11:00N 34°43' W 076°42'0 0.0
2018-Feb-13 10:31N 34°43' W 076°42'0 0.0
2018-Feb-13 10:01N 34°43' W 076°42'0 0.0
2018-Feb-13 09:30N 34°43' W 076°42'0 0.0
2018-Feb-13 09:01N 34°43' W 076°42'0 0.0
2018-Feb-13 08:30N 34°43' W 076°42'0 0.0
2018-Feb-13 07:59N 34°43' W 076°42'0 0.0
2018-Feb-13 07:31N 34°43' W 076°42'0 0.0
2018-Feb-13 07:01N 34°43' W 076°42'0 0.0
2018-Feb-13 06:30N 34°43' W 076°42'0 0.0
2018-Feb-13 06:01N 34°43' W 076°42'0 0.0
2018-Feb-13 05:31N 34°43' W 076°42'0 0.0
2018-Feb-13 05:00N 34°43' W 076°42'0 0.0
2018-Feb-13 04:30N 34°43' W 076°42'0 0.0
2018-Feb-13 04:01N 34°43' W 076°42'0 0.0
2018-Feb-13 03:30N 34°43' W 076°42'0 0.0
2018-Feb-13 03:01N 34°43' W 076°42'  
Track history (hours):
 
Tides and Currents Weather Stations Pressure Air Temp Water Temp Dewpoint Dewpoint Depression Visibility Wind Speed Wind Dir Waves Ship Positions

Island Pilot

Owner: Island Pilot, Yonges Island, SC. More information available from US FCC via Universal Licensing System and Coast Guard Vessel Documentation Center.

Last reported at 2018-Feb-23 02:31 UTC. Time now 2018-Feb-24 08:10 UTC.
Position N 35°06' W 076°32'.

Length 20 m; draft 3 m.

Type: Towing. MMSI: 367473520.

Date/timePositionNaut miles runAvg speedWind from/ knotsBaromVisibWave heightAir tempDewpointWater temp
2018-Feb-23 02:31N 35°06' W 076°32'3 5.7
2018-Feb-23 01:57N 35°03' W 076°34'3 6.0
2018-Feb-23 01:27N 35°02' W 076°37'4 6.2
2018-Feb-23 00:53N 34°60' W 076°41'2 5.3
2018-Feb-23 00:30N 34°58' W 076°41'2 5.1
2018-Feb-23 00:01N 34°56' W 076°39'2 3.9
2018-Feb-22 23:26N 34°54' W 076°41'2 4.0
2018-Feb-22 23:00N 34°52' W 076°42'2 4.4
2018-Feb-22 22:30N 34°50' W 076°41'2 4.6
2018-Feb-22 22:00N 34°48' W 076°41'2 4.6
2018-Feb-22 21:30N 34°46' W 076°40'2 4.5
2018-Feb-22 21:00N 34°44' W 076°42'1 1.3
2018-Feb-22 20:31N 34°43' W 076°42'0 0.0
2018-Feb-22 20:00N 34°43' W 076°42'0 0.0
2018-Feb-22 19:31N 34°43' W 076°42'0 0.0
2018-Feb-22 19:00N 34°43' W 076°42'0 0.0
2018-Feb-22 18:30N 34°43' W 076°42'0 0.0
2018-Feb-22 18:00N 34°43' W 076°42'0 0.0
2018-Feb-22 17:30N 34°43' W 076°42'0 0.0
2018-Feb-22 17:01N 34°43' W 076°42'0 0.0
2018-Feb-22 16:31N 34°43' W 076°42'0 0.0
2018-Feb-22 16:01N 34°43' W 076°42'0 0.0
2018-Feb-22 15:30N 34°43' W 076°42'0 0.0
2018-Feb-22 15:01N 34°43' W 076°42'0 0.0
2018-Feb-22 14:30N 34°43' W 076°42'0 0.0
2018-Feb-22 14:00N 34°43' W 076°42'0 0.0
2018-Feb-22 13:30N 34°43' W 076°42'0 0.0
2018-Feb-22 13:00N 34°43' W 076°42'0 0.0
2018-Feb-22 12:31N 34°43' W 076°42'0 0.0
2018-Feb-22 12:01N 34°43' W 076°42'0 0.0
2018-Feb-22 11:30N 34°43' W 076°42'0 0.0
2018-Feb-22 11:01N 34°43' W 076°42'0 0.0
2018-Feb-22 10:31N 34°43' W 076°42'0 0.0
2018-Feb-22 10:00N 34°43' W 076°42'0 0.0
2018-Feb-22 09:30N 34°43' W 076°42'0 0.0
2018-Feb-22 09:01N 34°43' W 076°42'0 0.0
2018-Feb-22 08:31N 34°43' W 076°42'0 0.0
2018-Feb-22 08:01N 34°43' W 076°42'0 0.0
2018-Feb-22 07:31N 34°43' W 076°42'1 1.2
2018-Feb-22 07:00N 34°44' W 076°42'0 0.3
2018-Feb-22 06:31N 34°44' W 076°42'3 5.8
2018-Feb-22 06:00N 34°47' W 076°41'3 5.5
2018-Feb-22 05:30N 34°49' W 076°41'3 5.1
2018-Feb-22 05:01N 34°52' W 076°41'2 4.7
2018-Feb-22 04:30N 34°54' W 076°41'3 5.2
2018-Feb-22 04:00N 34°57' W 076°40'  
2018-Feb-18 01:17N 34°57' W 076°40'1 3.6
2018-Feb-18 01:00N 34°56' W 076°39'2 3.4
2018-Feb-18 00:29N 34°54' W 076°40'1 2.8
2018-Feb-18 00:00N 34°53' W 076°41'1 2.8
2018-Feb-17 23:30N 34°52' W 076°41'1 2.7
2018-Feb-17 23:01N 34°50' W 076°41'1 2.1
2018-Feb-17 22:30N 34°49' W 076°41'1 1.5
2018-Feb-17 22:01N 34°49' W 076°41'1 1.1
2018-Feb-17 21:30N 34°48' W 076°41'1 1.1
2018-Feb-17 21:01N 34°48' W 076°41'1 2.0
2018-Feb-17 20:30N 34°47' W 076°41'1 2.5
2018-Feb-17 20:01N 34°46' W 076°40'1 2.7
2018-Feb-17 19:30N 34°44' W 076°41'1 2.5
2018-Feb-17 19:00N 34°43' W 076°42'0 0.4
2018-Feb-17 18:30N 34°43' W 076°42'0 0.1
2018-Feb-17 18:01N 34°43' W 076°42'0 0.0
2018-Feb-17 17:30N 34°43' W 076°42'0 0.0
2018-Feb-17 17:00N 34°43' W 076°42'0 0.1
2018-Feb-17 16:30N 34°43' W 076°42'0 0.0
2018-Feb-17 16:00N 34°43' W 076°42'0 0.0
2018-Feb-17 15:31N 34°43' W 076°42'0 0.0
2018-Feb-17 15:01N 34°43' W 076°42'0 0.3
2018-Feb-17 14:31N 34°43' W 076°41'0 0.4
2018-Feb-17 14:00N 34°43' W 076°42'0 0.4
2018-Feb-17 13:31N 34°43' W 076°41'1 1.3
2018-Feb-17 13:01N 34°43' W 076°42'0 0.5
2018-Feb-17 12:31N 34°43' W 076°42'0 0.0
2018-Feb-17 12:00N 34°43' W 076°42'0 0.0
2018-Feb-17 11:31N 34°43' W 076°42'0 0.6
2018-Feb-17 11:00N 34°43' W 076°42'0 0.0
2018-Feb-17 10:30N 34°43' W 076°42'0 0.0
2018-Feb-17 10:00N 34°43' W 076°42'0 0.0
2018-Feb-17 09:30N 34°43' W 076°42'0 0.0
2018-Feb-17 09:00N 34°43' W 076°42'0 0.0
2018-Feb-17 08:30N 34°43' W 076°42'0 0.0
2018-Feb-17 08:00N 34°43' W 076°42'0 0.1
2018-Feb-17 07:29N 34°43' W 076°42'0 0.0
2018-Feb-17 07:00N 34°43' W 076°42'0 0.0
2018-Feb-17 06:31N 34°43' W 076°42'0 0.0
2018-Feb-17 06:00N 34°43' W 076°42'0 0.0
2018-Feb-17 05:30N 34°43' W 076°42'0 0.1
2018-Feb-17 05:00N 34°43' W 076°42'0 0.6
2018-Feb-17 04:31N 34°43' W 076°42'0 0.0
2018-Feb-17 04:01N 34°43' W 076°42'0 0.0
2018-Feb-17 03:30N 34°43' W 076°42'0 0.6
2018-Feb-17 03:01N 34°43' W 076°42'0 0.1
2018-Feb-17 02:31N 34°43' W 076°42'0 0.0
2018-Feb-17 02:01N 34°43' W 076°42'0 0.0
2018-Feb-17 01:30N 34°43' W 076°42'0 0.0
2018-Feb-17 01:00N 34°43' W 076°42'0 0.7
2018-Feb-17 00:30N 34°43' W 076°42'0 0.7
2018-Feb-17 00:01N 34°43' W 076°42'0 0.2
2018-Feb-16 23:31N 34°43' W 076°42'0 0.0
2018-Feb-16 22:59N 34°43' W 076°42'0 0.0
2018-Feb-16 22:30N 34°43' W 076°42'0 0.0
2018-Feb-16 22:00N 34°43' W 076°42'0 0.0
2018-Feb-16 21:30N 34°43' W 076°42'0 0.0
2018-Feb-16 21:01N 34°43' W 076°42'0 0.0
2018-Feb-16 20:31N 34°43' W 076°42'0 0.1
2018-Feb-16 20:01N 34°43' W 076°42'0 0.6
2018-Feb-16 19:31N 34°43' W 076°42'0 0.0
2018-Feb-16 19:00N 34°43' W 076°42'0 0.0
2018-Feb-16 18:31N 34°43' W 076°42'0 0.0
2018-Feb-16 18:00N 34°43' W 076°42'0 0.0
2018-Feb-16 17:30N 34°43' W 076°42'0 0.0
2018-Feb-16 17:01N 34°43' W 076°42'0 0.6
2018-Feb-16 16:30N 34°43' W 076°42'0 0.0
2018-Feb-16 16:00N 34°43' W 076°42'0 0.0
2018-Feb-16 15:31N 34°43' W 076°42'1 1.4
2018-Feb-16 15:01N 34°43' W 076°42'1 1.3
2018-Feb-16 14:30N 34°43' W 076°42'1 1.2
2018-Feb-16 14:01N 34°43' W 076°42'0 0.9
2018-Feb-16 13:31N 34°43' W 076°42'0 0.8
2018-Feb-16 13:00N 34°43' W 076°42'0 0.0
2018-Feb-16 12:30N 34°43' W 076°42'0 0.0
2018-Feb-16 12:01N 34°43' W 076°42'0 0.6
2018-Feb-16 11:31N 34°43' W 076°42'0 0.1
2018-Feb-16 11:00N 34°43' W 076°42'0 0.0
2018-Feb-16 10:31N 34°43' W 076°42'0 0.0
2018-Feb-16 10:00N 34°43' W 076°42'0 0.0
2018-Feb-16 09:30N 34°43' W 076°42'0 0.0
2018-Feb-16 09:00N 34°43' W 076°42'0 0.0
2018-Feb-16 08:31N 34°43' W 076°42'0 0.0
2018-Feb-16 08:00N 34°43' W 076°42'0 0.6
2018-Feb-16 07:30N 34°43' W 076°42'0 0.0
2018-Feb-16 07:00N 34°43' W 076°42'0 0.0
2018-Feb-16 06:30N 34°43' W 076°42'0 0.0
2018-Feb-16 06:00N 34°43' W 076°42'1 1.1
2018-Feb-16 05:31N 34°43' W 076°42'1 1.1
2018-Feb-16 05:00N 34°43' W 076°42'0 0.0
2018-Feb-16 04:31N 34°43' W 076°42'0 0.0
2018-Feb-16 04:00N 34°43' W 076°42'0 0.7
2018-Feb-16 03:30N 34°43' W 076°42'0 0.0
2018-Feb-16 03:00N 34°43' W 076°42'0 0.3
2018-Feb-16 02:31N 34°43' W 076°42'0 0.9
2018-Feb-16 02:01N 34°43' W 076°42'0 0.0
2018-Feb-16 01:30N 34°43' W 076°42'0 0.0
2018-Feb-16 01:00N 34°43' W 076°42'0 0.0
2018-Feb-16 00:31N 34°43' W 076°42'0 0.0
2018-Feb-16 00:00N 34°43' W 076°42'0 0.0
2018-Feb-15 23:31N 34°43' W 076°42'0 0.0
2018-Feb-15 23:01N 34°43' W 076°42'0 0.0
2018-Feb-15 22:30N 34°43' W 076°42'1 1.4
2018-Feb-15 22:01N 34°44' W 076°42'1 1.3
2018-Feb-15 21:30N 34°43' W 076°42'0 0.0
2018-Feb-15 21:01N 34°43' W 076°42'0 0.0
2018-Feb-15 20:31N 34°43' W 076°42'0 0.0
2018-Feb-15 20:00N 34°43' W 076°42'0 0.7
2018-Feb-15 19:30N 34°43' W 076°42'0 0.1
2018-Feb-15 19:01N 34°43' W 076°42'0 0.6
2018-Feb-15 18:30N 34°43' W 076°42'0 0.0
2018-Feb-15 18:01N 34°43' W 076°42'0 0.3
2018-Feb-15 17:30N 34°43' W 076°42'0 0.5
2018-Feb-15 17:01N 34°43' W 076°42'0 0.0
2018-Feb-15 16:31N 34°43' W 076°42'0 0.0
2018-Feb-15 16:01N 34°43' W 076°42'0 0.0
2018-Feb-15 15:31N 34°43' W 076°42'0 0.0
2018-Feb-15 15:01N 34°43' W 076°42'0 0.0
2018-Feb-15 14:30N 34°43' W 076°42'0 0.0
2018-Feb-15 14:00N 34°43' W 076°42'0 0.0
2018-Feb-15 13:31N 34°43' W 076°42'0 0.0
2018-Feb-15 13:00N 34°43' W 076°42'0 0.3
2018-Feb-15 12:30N 34°43' W 076°42'0 0.0
2018-Feb-15 12:01N 34°43' W 076°42'0 0.0
2018-Feb-15 11:30N 34°43' W 076°42'0 0.0
2018-Feb-15 11:01N 34°43' W 076°42'0 0.1
2018-Feb-15 10:30N 34°43' W 076°42'0 0.0
2018-Feb-15 10:00N 34°43' W 076°42'0 0.0
2018-Feb-15 09:30N 34°43' W 076°42'0 0.0
2018-Feb-15 09:00N 34°43' W 076°42'0 0.0
2018-Feb-15 08:30N 34°43' W 076°42'0 0.0
2018-Feb-15 08:00N 34°43' W 076°42'0 0.0
2018-Feb-15 07:30N 34°43' W 076°42'0 0.0
2018-Feb-15 07:01N 34°43' W 076°42'0 0.0
2018-Feb-15 06:31N 34°43' W 076°42'0 0.0
2018-Feb-15 06:00N 34°43' W 076°42'0 0.2
2018-Feb-15 05:30N 34°43' W 076°42'0 0.0
2018-Feb-15 05:00N 34°43' W 076°42'0 0.0
2018-Feb-15 04:29N 34°43' W 076°42'0 0.0
2018-Feb-15 03:59N 34°43' W 076°42'0 0.0
2018-Feb-15 03:31N 34°43' W 076°42'0 0.0
2018-Feb-15 03:00N 34°43' W 076°42'0 0.0
2018-Feb-15 02:30N 34°43' W 076°42'0 0.0
2018-Feb-15 01:59N 34°43' W 076°42'0 0.0
2018-Feb-15 01:31N 34°43' W 076°42'0 0.0
2018-Feb-15 01:01N 34°43' W 076°42'0 0.2
2018-Feb-15 00:31N 34°43' W 076°42'0 0.0
2018-Feb-15 00:00N 34°43' W 076°42'0 0.2
2018-Feb-14 23:31N 34°43' W 076°42'0 0.0
2018-Feb-14 23:00N 34°43' W 076°42'0 0.0
2018-Feb-14 22:31N 34°43' W 076°42'0 0.0
2018-Feb-14 22:01N 34°43' W 076°42'0 0.0
2018-Feb-14 21:30N 34°43' W 076°42'1 1.0
2018-Feb-14 21:00N 34°43' W 076°42'0 1.0
2018-Feb-14 20:31N 34°43' W 076°42'0 0.1
2018-Feb-14 20:00N 34°43' W 076°42'0 0.3
2018-Feb-14 19:30N 34°43' W 076°42'0 0.0
2018-Feb-14 19:01N 34°43' W 076°42'0 0.0
2018-Feb-14 18:30N 34°43' W 076°42'0 0.0
2018-Feb-14 18:01N 34°43' W 076°42'0 0.0
2018-Feb-14 17:31N 34°43' W 076°42'0 0.0
2018-Feb-14 17:01N 34°43' W 076°42'0 0.0
2018-Feb-14 16:30N 34°43' W 076°42'0 0.3
2018-Feb-14 16:00N 34°43' W 076°42'0 0.1
2018-Feb-14 15:31N 34°43' W 076°42'0 0.0
2018-Feb-14 15:00N 34°43' W 076°42'0 0.0
2018-Feb-14 14:30N 34°43' W 076°42'0 0.0
2018-Feb-14 14:01N 34°43' W 076°42'0 0.0
2018-Feb-14 13:31N 34°43' W 076°42'0 0.0
2018-Feb-14 13:00N 34°43' W 076°42'0 0.0
2018-Feb-14 12:30N 34°43' W 076°42'0 0.0
2018-Feb-14 12:00N 34°43' W 076°42'0 0.0
2018-Feb-14 11:31N 34°43' W 076°42'0 0.0
2018-Feb-14 11:00N 34°43' W 076°42'0 0.0
2018-Feb-14 10:30N 34°43' W 076°42'0 0.0
2018-Feb-14 10:00N 34°43' W 076°42'0 0.0
2018-Feb-14 09:31N 34°43' W 076°42'0 0.0
2018-Feb-14 09:01N 34°43' W 076°42'0 0.0
2018-Feb-14 08:30N 34°43' W 076°42'0 0.0
2018-Feb-14 08:01N 34°43' W 076°42'0 0.0
2018-Feb-14 07:30N 34°43' W 076°42'0 0.0
2018-Feb-14 07:00N 34°43' W 076°42'0 0.0
2018-Feb-14 06:30N 34°43' W 076°42'0 0.0
2018-Feb-14 06:01N 34°43' W 076°42'0 0.0
2018-Feb-14 05:30N 34°43' W 076°42'0 0.0
2018-Feb-14 05:00N 34°43' W 076°42'0 0.0
2018-Feb-14 04:29N 34°43' W 076°42'0 0.0
2018-Feb-14 04:00N 34°43' W 076°42'0 0.0
2018-Feb-14 03:31N 34°43' W 076°42'0 0.0
2018-Feb-14 03:00N 34°43' W 076°42'0 0.0
2018-Feb-14 02:30N 34°43' W 076°42'0 0.0
2018-Feb-14 02:00N 34°43' W 076°42'0 0.0
2018-Feb-14 01:31N 34°43' W 076°42'0 0.0
2018-Feb-14 01:01N 34°43' W 076°42'0 0.0
2018-Feb-14 00:30N 34°43' W 076°42'0 0.0
2018-Feb-14 00:00N 34°43' W 076°42'0 0.0
2018-Feb-13 23:29N 34°43' W 076°42'0 0.0
2018-Feb-13 23:00N 34°43' W 076°42'0 0.0
2018-Feb-13 22:30N 34°43' W 076°42'0 0.0
2018-Feb-13 22:00N 34°43' W 076°42'0 0.0
2018-Feb-13 21:29N 34°43' W 076°42'0 0.0
2018-Feb-13 21:00N 34°43' W 076°42'0 0.0
2018-Feb-13 20:30N 34°43' W 076°42'0 0.0
2018-Feb-13 20:00N 34°43' W 076°42'0 0.0
2018-Feb-13 19:30N 34°43' W 076°42'0 0.0
2018-Feb-13 19:00N 34°43' W 076°42'0 0.0
2018-Feb-13 18:29N 34°43' W 076°42'0 0.0
2018-Feb-13 18:01N 34°43' W 076°42'0 0.0
2018-Feb-13 17:31N 34°43' W 076°42'0 0.0
2018-Feb-13 17:00N 34°43' W 076°42'0 0.0
2018-Feb-13 16:31N 34°43' W 076°42'0 0.0
2018-Feb-13 16:00N 34°43' W 076°42'0 0.0
2018-Feb-13 15:30N 34°43' W 076°42'0 0.0
2018-Feb-13 15:00N 34°43' W 076°42'0 0.0
2018-Feb-13 14:30N 34°43' W 076°42'0 0.0
2018-Feb-13 14:01N 34°43' W 076°42'0 0.0
2018-Feb-13 13:30N 34°43' W 076°42'0 0.0
2018-Feb-13 13:00N 34°43' W 076°42'0 0.0
2018-Feb-13 12:31N 34°43' W 076°42'0 0.0
2018-Feb-13 12:00N 34°43' W 076°42'0 0.0
2018-Feb-13 11:30N 34°43' W 076°42'0 0.0
2018-Feb-13 11:00N 34°43' W 076°42'0 0.0
2018-Feb-13 10:31N 34°43' W 076°42'0 0.0
2018-Feb-13 10:01N 34°43' W 076°42'0 0.0
2018-Feb-13 09:30N 34°43' W 076°42'0 0.0
2018-Feb-13 09:01N 34°43' W 076°42'0 0.0
2018-Feb-13 08:30N 34°43' W 076°42'0 0.0
2018-Feb-13 07:59N 34°43' W 076°42'0 0.0
2018-Feb-13 07:31N 34°43' W 076°42'0 0.0
2018-Feb-13 07:01N 34°43' W 076°42'0 0.0
2018-Feb-13 06:30N 34°43' W 076°42'0 0.0
2018-Feb-13 06:01N 34°43' W 076°42'0 0.0
2018-Feb-13 05:31N 34°43' W 076°42'0 0.0
2018-Feb-13 05:00N 34°43' W 076°42'0 0.0
2018-Feb-13 04:30N 34°43' W 076°42'0 0.0
2018-Feb-13 04:01N 34°43' W 076°42'0 0.0
2018-Feb-13 03:30N 34°43' W 076°42'0 0.0
2018-Feb-13 03:01N 34°43' W 076°42'  

Dump ship's entire track history